10 C
Madrid
marzo, miércoles 3, 2021

Seis muertos al estrellars​e un avión español en Irlanda

Nuestros monogáficos

- Publicidad -

MetrolinerLos dos tripulantes y cuatro pasajeros, fallecierón este jueves por la mañana, al estrellarse un SwearingenSA227 BC Metro III, matrícula ECITP de la compañía española Flightline, después de tres intentos de aterrizaje. Otros seis pasajeros resultaron heridos.

El vuelo de la compañía regional Manx2 (NM7100) Manx2, despegó del aeropuerto de Belfast (BHD) para el aeropuerto de Cork (ORK) a las 08:12.

La aeronave realizó una aproximación a la pista 17 en condiciones de baja visibilidad (categoría 2) y tuvo que frustrar. La tripulación intentó un segundo aterrizaje en la pista 35, teniendo que frustrar de nuevo la maniobra. De nuevo intentó aterrizar a la pista 17, estrellandosé junto a una de las calles de rodadura e incendiandose.

Los Metar en el momento del accidente erán los siguientes:

EICK 100900Z 06003KT 0300 R17/0325N R35/0450N FG SCT001 03/03 Q1010 BECMG 3000=
EICK 100930Z 08005KT 050V110 0300 R17/0375N R35/0350N FG BKN001 04/04 Q1010 NOSIG=
EICK 101000Z 09008KT 0400 R17/0600N R35/0450N FG BKN001 05/05 Q1010 NOSIG=

Teléfono para familiares:

Manx2.com has announced an emergency telephone number for concerned families of those who may have been on the Belfast to Cork flight this morning.

The Casualty Bureau which is based at Cork Airport can be contacted on:0035321 4328820

- Publicidad -

Más artículos

DEJA UNA RESPUESTA

Por favor ingrese su comentario!
Por favor ingrese su nombre aquí

- Publicidad -

Todos los canales

Últimos artículos

Uso de cookies

Este sitio web utiliza cookies para que usted tenga la mejor experiencia de usuario. Si continúa navegando está dando su consentimiento para la aceptación de las mencionadas cookies y la aceptación de nuestra política de cookies, pinche el enlace para mayor información.plugin cookies

ACEPTAR
Aviso de cookies